MiSS Stacie — WDF5915 — position and weather

sailwx.info

Track history (hours):
 
Tides and Currents Weather Stations Pressure Air Temp Water Temp Dewpoint Dewpoint Depression Visibility Wind Speed Wind Dir Waves Ship Positions

MiSS Stacie

Owner: Crosby Marine Transportation LLC, Golden Meadow, LA. More information available from US FCC via Universal Licensing System and Coast Guard Vessel Documentation Center.

Last reported at 2015-Jul-30 03:25 UTC. Time now 2015-Jul-30 18:16 UTC.
Position N 29°56' W 090°00'.

Length 20 m; draft 2 m.

Type: Tug. MMSI: 367468640.

Date/timePositionNaut miles runAvg speedWind from/ knotsBaromVisibWave heightAir tempDewpointWater temp
2015-Jul-30 03:25N 29°56' W 090°00'0 0.1
2015-Jul-30 02:33N 29°57' W 090°00'0 0.0
2015-Jul-30 01:28N 29°57' W 090°00'5 5.2
2015-Jul-30 00:33N 29°55' W 090°05'1 0.7
2015-Jul-29 23:32N 29°54' W 090°05'  
2015-Jul-27 07:19N 29°47' W 090°04'0 0.0
2015-Jul-26 22:16N 29°47' W 090°04'0 0.0
2015-Jul-26 06:21N 29°47' W 090°04'0 0.0
2015-Jul-26 05:24N 29°47' W 090°04'0 0.0
2015-Jul-26 03:22N 29°47' W 090°04'27 2.9
2015-Jul-25 18:11N 29°34' W 090°31'3 5.2
2015-Jul-25 17:33N 29°34' W 090°34'6 5.9
2015-Jul-25 16:34N 29°36' W 090°41'4 3.6
2015-Jul-25 15:33N 29°34' W 090°44'3 3.0
2015-Jul-25 14:33N 29°32' W 090°47'7 7.3
2015-Jul-25 13:33N 29°33' W 090°55'  
2015-Jul-23 07:20N 29°36' W 090°58'6 7.4
2015-Jul-23 06:30N 29°32' W 090°52'6 6.6
2015-Jul-23 05:33N 29°33' W 090°45'2 2.1
2015-Jul-23 04:33N 29°34' W 090°43'3 2.8
2015-Jul-23 03:33N 29°37' W 090°41'4 4.3
2015-Jul-23 02:33N 29°35' W 090°37'  
2015-Jul-20 21:27N 29°34' W 090°31'6 7.0
2015-Jul-20 20:33N 29°35' W 090°38'4 4.0
2015-Jul-20 19:33N 29°35' W 090°43'7 6.7
2015-Jul-20 18:32N 29°32' W 090°50'  
Track history (hours):
 
Tides and Currents Weather Stations Pressure Air Temp Water Temp Dewpoint Dewpoint Depression Visibility Wind Speed Wind Dir Waves Ship Positions

MiSS Stacie

Owner: Crosby Marine Transportation LLC, Golden Meadow, LA. More information available from US FCC via Universal Licensing System and Coast Guard Vessel Documentation Center.

Last reported at 2015-Jul-30 03:25 UTC. Time now 2015-Jul-30 18:16 UTC.
Position N 29°56' W 090°00'.

Length 20 m; draft 2 m.

Type: Tug. MMSI: 367468640.

Date/timePositionNaut miles runAvg speedWind from/ knotsBaromVisibWave heightAir tempDewpointWater temp
2015-Jul-30 03:25N 29°56' W 090°00'0 0.1
2015-Jul-30 02:33N 29°57' W 090°00'0 0.0
2015-Jul-30 01:28N 29°57' W 090°00'5 5.2
2015-Jul-30 00:33N 29°55' W 090°05'1 0.7
2015-Jul-29 23:32N 29°54' W 090°05'  
2015-Jul-27 07:19N 29°47' W 090°04'0 0.0
2015-Jul-26 22:16N 29°47' W 090°04'0 0.0
2015-Jul-26 06:21N 29°47' W 090°04'0 0.0
2015-Jul-26 05:24N 29°47' W 090°04'0 0.0
2015-Jul-26 03:22N 29°47' W 090°04'27 2.9
2015-Jul-25 18:11N 29°34' W 090°31'3 5.2
2015-Jul-25 17:33N 29°34' W 090°34'6 5.9
2015-Jul-25 16:34N 29°36' W 090°41'4 3.6
2015-Jul-25 15:33N 29°34' W 090°44'3 3.0
2015-Jul-25 14:33N 29°32' W 090°47'7 7.3
2015-Jul-25 13:33N 29°33' W 090°55'  
2015-Jul-23 07:20N 29°36' W 090°58'6 7.4
2015-Jul-23 06:30N 29°32' W 090°52'6 6.6
2015-Jul-23 05:33N 29°33' W 090°45'2 2.1
2015-Jul-23 04:33N 29°34' W 090°43'3 2.8
2015-Jul-23 03:33N 29°37' W 090°41'4 4.3
2015-Jul-23 02:33N 29°35' W 090°37'  
2015-Jul-20 21:27N 29°34' W 090°31'6 7.0
2015-Jul-20 20:33N 29°35' W 090°38'4 4.0
2015-Jul-20 19:33N 29°35' W 090°43'7 6.7
2015-Jul-20 18:32N 29°32' W 090°50'  

Dump ship's entire track history